DAL2325 KEWR-KATL
Flight info
| Callsign | DAL2325 |
|---|---|
| Flight time | 1h 47m |
| Altitude | 34000 |
| Route | LANNA J48 MOL FLASK OZZZI2 |
| Aircraft | B739/M-SDE2E3FGHIRWXY/LB1 |
Departure
| Time | 2026-05-06 16:20 |
|---|---|
| Airport | Newark Liberty International Airport (KEWR) |
Arrival
| Time | 2026-05-06 18:07 |
|---|---|
| Airport | Hartsfield Jackson Atlanta International Airport (KATL) |
| Time | Latitude | Longitude | Altitude | Speed | Heading |
|---|---|---|---|---|---|
| 2026-05-06 15:46 | 40.68208 | -74.18718 | 24 ft | 0 kts | 288° |
| 2026-05-06 16:02 | 40.68203 | -74.18697 | 23 ft | 4 kts | 289° |
| 2026-05-06 16:02 | 40.68193 | -74.18664 | 22 ft | 4 kts | 301° |
| 2026-05-06 16:02 | 40.68177 | -74.18642 | 23 ft | 4 kts | 354° |
| 2026-05-06 16:03 | 40.68170 | -74.18641 | 21 ft | 0 kts | 12° |
| 2026-05-06 16:06 | 40.68184 | -74.18636 | 25 ft | 4 kts | 14° |
| 2026-05-06 16:06 | 40.68225 | -74.18611 | 23 ft | 8 kts | 38° |
| 2026-05-06 16:06 | 40.68252 | -74.18548 | 21 ft | 8 kts | 82° |
| 2026-05-06 16:06 | 40.68249 | -74.18477 | 21 ft | 8 kts | 95° |
| 2026-05-06 16:07 | 40.68245 | -74.18408 | 21 ft | 7 kts | 94° |
| 2026-05-06 16:07 | 40.68242 | -74.18364 | 21 ft | 3 kts | 95° |
| 2026-05-06 16:07 | 40.68240 | -74.18335 | 21 ft | 3 kts | 95° |
| 2026-05-06 16:07 | 40.68238 | -74.18307 | 21 ft | 3 kts | 96° |
| 2026-05-06 16:08 | 40.68236 | -74.18279 | 21 ft | 3 kts | 95° |
| 2026-05-06 16:08 | 40.68234 | -74.18251 | 21 ft | 3 kts | 95° |
| 2026-05-06 16:08 | 40.68232 | -74.18224 | 21 ft | 3 kts | 96° |
| 2026-05-06 16:08 | 40.68232 | -74.18197 | 21 ft | 3 kts | 88° |
| 2026-05-06 16:09 | 40.68235 | -74.18166 | 21 ft | 4 kts | 80° |
| 2026-05-06 16:09 | 40.68240 | -74.18124 | 21 ft | 5 kts | 84° |
| 2026-05-06 16:09 | 40.68238 | -74.18075 | 21 ft | 5 kts | 94° |
| 2026-05-06 16:09 | 40.68235 | -74.18026 | 21 ft | 5 kts | 96° |
| 2026-05-06 16:10 | 40.68227 | -74.17976 | 22 ft | 6 kts | 108° |
| 2026-05-06 16:10 | 40.68220 | -74.17920 | 21 ft | 6 kts | 100° |
| 2026-05-06 16:10 | 40.68201 | -74.17863 | 21 ft | 7 kts | 114° |
| 2026-05-06 16:10 | 40.68209 | -74.17797 | 23 ft | 9 kts | 48° |
| 2026-05-06 16:11 | 40.68274 | -74.17763 | 21 ft | 12 kts | 19° |
| 2026-05-06 16:11 | 40.68359 | -74.17710 | 21 ft | 15 kts | 27° |
| 2026-05-06 16:11 | 40.68462 | -74.17640 | 21 ft | 18 kts | 27° |
| 2026-05-06 16:11 | 40.68580 | -74.17563 | 21 ft | 18 kts | 26° |
| 2026-05-06 16:12 | 40.68693 | -74.17492 | 21 ft | 18 kts | 25° |
| 2026-05-06 16:12 | 40.68793 | -74.17430 | 21 ft | 17 kts | 25° |
| 2026-05-06 16:12 | 40.68897 | -74.17363 | 21 ft | 16 kts | 26° |
| 2026-05-06 16:12 | 40.68997 | -74.17298 | 21 ft | 16 kts | 25° |
| 2026-05-06 16:13 | 40.69094 | -74.17238 | 21 ft | 15 kts | 25° |
| 2026-05-06 16:13 | 40.69185 | -74.17181 | 21 ft | 14 kts | 25° |
| 2026-05-06 16:13 | 40.69273 | -74.17124 | 21 ft | 14 kts | 27° |
| 2026-05-06 16:13 | 40.69358 | -74.17069 | 21 ft | 13 kts | 26° |
| 2026-05-06 16:14 | 40.69439 | -74.17018 | 21 ft | 13 kts | 25° |
| 2026-05-06 16:14 | 40.69519 | -74.16968 | 21 ft | 12 kts | 25° |
| 2026-05-06 16:14 | 40.69595 | -74.16918 | 22 ft | 12 kts | 27° |
| 2026-05-06 16:14 | 40.69659 | -74.16852 | 23 ft | 12 kts | 65° |
| 2026-05-06 16:15 | 40.69692 | -74.16748 | 22 ft | 13 kts | 54° |
| 2026-05-06 16:15 | 40.69769 | -74.16686 | 20 ft | 14 kts | 25° |
| 2026-05-06 16:15 | 40.69859 | -74.16631 | 20 ft | 15 kts | 25° |
| 2026-05-06 16:15 | 40.69953 | -74.16569 | 20 ft | 16 kts | 27° |
| 2026-05-06 16:16 | 40.70045 | -74.16511 | 20 ft | 6 kts | 28° |
| 2026-05-06 16:16 | 40.70062 | -74.16479 | 21 ft | 0 kts | 75° |
| 2026-05-06 16:17 | 40.70064 | -74.16473 | 20 ft | 2 kts | 76° |
| 2026-05-06 16:18 | 40.70066 | -74.16449 | 19 ft | 4 kts | 90° |
| 2026-05-06 16:18 | 40.70062 | -74.16399 | 19 ft | 7 kts | 97° |
| 2026-05-06 16:18 | 40.70030 | -74.16363 | 18 ft | 6 kts | 191° |
| 2026-05-06 16:18 | 40.70022 | -74.16367 | 18 ft | 0 kts | 203° |
| 2026-05-06 16:19 | 40.70018 | -74.16369 | 18 ft | 7 kts | 203° |
| 2026-05-06 16:19 | 40.69778 | -74.16521 | 20 ft | 70 kts | 206° |
| 2026-05-06 16:19 | 40.69183 | -74.16901 | 22 ft | 119 kts | 206° |
| 2026-05-06 16:20 | 40.68342 | -74.17441 | 144 ft | 143 kts | 208° |
| 2026-05-06 16:20 | 40.67403 | -74.18037 | 457 ft | 157 kts | 208° |
| 2026-05-06 16:20 | 40.66416 | -74.18551 | 1105 ft | 149 kts | 192° |
| 2026-05-06 16:20 | 40.65377 | -74.18736 | 1606 ft | 157 kts | 192° |
| 2026-05-06 16:21 | 40.64233 | -74.18926 | 1881 ft | 180 kts | 191° |
| 2026-05-06 16:21 | 40.62922 | -74.19159 | 2139 ft | 194 kts | 197° |
| 2026-05-06 16:21 | 40.61832 | -74.20208 | 2426 ft | 207 kts | 239° |
| 2026-05-06 16:21 | 40.61294 | -74.21987 | 2906 ft | 212 kts | 245° |
| 2026-05-06 16:22 | 40.60756 | -74.23810 | 3393 ft | 219 kts | 244° |
| 2026-05-06 16:22 | 40.60176 | -74.25737 | 3762 ft | 231 kts | 245° |
| 2026-05-06 16:22 | 40.59588 | -74.27689 | 4686 ft | 225 kts | 244° |
| 2026-05-06 16:22 | 40.59117 | -74.29662 | 5616 ft | 232 kts | 255° |
| 2026-05-06 16:23 | 40.59004 | -74.31831 | 6401 ft | 244 kts | 262° |
| 2026-05-06 16:23 | 40.58995 | -74.34071 | 7229 ft | 244 kts | 262° |
| 2026-05-06 16:23 | 40.58993 | -74.36310 | 7948 ft | 248 kts | 262° |
| 2026-05-06 16:23 | 40.58981 | -74.38580 | 8653 ft | 249 kts | 261° |
| 2026-05-06 16:24 | 40.58965 | -74.40854 | 9442 ft | 248 kts | 261° |
| 2026-05-06 16:24 | 40.58933 | -74.43125 | 10121 ft | 249 kts | 261° |
| 2026-05-06 16:24 | 40.58884 | -74.45477 | 10381 ft | 268 kts | 261° |
| 2026-05-06 16:24 | 40.58827 | -74.47973 | 10529 ft | 287 kts | 261° |
| 2026-05-06 16:25 | 40.58768 | -74.50674 | 10676 ft | 306 kts | 262° |
| 2026-05-06 16:25 | 40.58712 | -74.53567 | 10825 ft | 324 kts | 263° |
| 2026-05-06 16:25 | 40.58658 | -74.56584 | 11146 ft | 335 kts | 263° |
| 2026-05-06 16:25 | 40.58597 | -74.59665 | 11738 ft | 338 kts | 263° |
| 2026-05-06 16:26 | 40.58539 | -74.62778 | 12333 ft | 342 kts | 263° |
| 2026-05-06 16:26 | 40.58477 | -74.65904 | 12948 ft | 344 kts | 263° |
| 2026-05-06 16:26 | 40.58412 | -74.69058 | 13552 ft | 346 kts | 263° |
| 2026-05-06 16:26 | 40.58344 | -74.72242 | 14069 ft | 349 kts | 263° |
| 2026-05-06 16:27 | 40.58250 | -74.75445 | 14640 ft | 350 kts | 261° |
| 2026-05-06 16:27 | 40.58022 | -74.78633 | 15234 ft | 351 kts | 260° |
| 2026-05-06 16:27 | 40.57744 | -74.81826 | 15805 ft | 353 kts | 260° |
| 2026-05-06 16:27 | 40.57460 | -74.85048 | 16341 ft | 355 kts | 261° |
| 2026-05-06 16:28 | 40.57184 | -74.88280 | 16859 ft | 357 kts | 261° |
| 2026-05-06 16:28 | 40.56914 | -74.91545 | 17357 ft | 360 kts | 262° |
| 2026-05-06 16:28 | 40.56647 | -74.94826 | 17833 ft | 362 kts | 262° |
| 2026-05-06 16:28 | 40.56379 | -74.98140 | 18311 ft | 365 kts | 263° |
| 2026-05-06 16:29 | 40.55945 | -75.01426 | 18717 ft | 367 kts | 252° |
| 2026-05-06 16:29 | 40.54892 | -75.04497 | 19150 ft | 371 kts | 240° |
| 2026-05-06 16:29 | 40.53341 | -75.07233 | 19660 ft | 373 kts | 233° |
| 2026-05-06 16:29 | 40.51704 | -75.09806 | 20255 ft | 371 kts | 233° |
| 2026-05-06 16:30 | 40.50002 | -75.12439 | 20628 ft | 376 kts | 233° |
| 2026-05-06 16:30 | 40.48873 | -75.14186 | 20857 ft | 378 kts | 233° |
| 2026-05-06 16:30 | 40.46616 | -75.17695 | 21402 ft | 381 kts | 233° |
| 2026-05-06 16:30 | 40.44906 | -75.20370 | 21809 ft | 383 kts | 233° |
| 2026-05-06 16:31 | 40.43197 | -75.23054 | 22193 ft | 385 kts | 233° |
| 2026-05-06 16:31 | 40.41470 | -75.25771 | 22609 ft | 387 kts | 233° |
| 2026-05-06 16:31 | 40.39737 | -75.28500 | 22967 ft | 390 kts | 233° |
| 2026-05-06 16:31 | 40.37996 | -75.31242 | 23288 ft | 394 kts | 233° |
| 2026-05-06 16:32 | 40.36235 | -75.34012 | 23622 ft | 396 kts | 234° |
| 2026-05-06 16:32 | 40.34470 | -75.36786 | 23953 ft | 397 kts | 234° |
| 2026-05-06 16:32 | 40.32698 | -75.39567 | 24276 ft | 398 kts | 234° |
| 2026-05-06 16:32 | 40.30917 | -75.42360 | 24621 ft | 400 kts | 234° |
| 2026-05-06 16:33 | 40.29127 | -75.45166 | 24998 ft | 401 kts | 234° |
| 2026-05-06 16:33 | 40.27331 | -75.47979 | 25337 ft | 403 kts | 234° |
| 2026-05-06 16:33 | 40.25554 | -75.50759 | 25641 ft | 404 kts | 234° |
| 2026-05-06 16:34 | 40.21957 | -75.56434 | 26225 ft | 406 kts | 237° |
| 2026-05-06 16:34 | 40.20356 | -75.59476 | 26501 ft | 406 kts | 241° |
| 2026-05-06 16:34 | 40.18825 | -75.62589 | 26788 ft | 407 kts | 241° |
| 2026-05-06 16:34 | 40.17297 | -75.65711 | 27086 ft | 409 kts | 241° |
| 2026-05-06 16:35 | 40.15753 | -75.68840 | 27420 ft | 409 kts | 241° |
| 2026-05-06 16:35 | 40.14201 | -75.71953 | 27849 ft | 408 kts | 241° |
| 2026-05-06 16:35 | 40.12649 | -75.75046 | 28330 ft | 405 kts | 241° |
| 2026-05-06 16:35 | 40.11107 | -75.78111 | 28850 ft | 403 kts | 242° |
| 2026-05-06 16:36 | 40.10089 | -75.80129 | 29256 ft | 399 kts | 241° |
| 2026-05-06 16:36 | 40.08570 | -75.83139 | 29871 ft | 395 kts | 241° |
| 2026-05-06 16:36 | 40.07055 | -75.86122 | 30309 ft | 393 kts | 242° |
| 2026-05-06 16:36 | 40.05544 | -75.89089 | 30678 ft | 392 kts | 242° |
| 2026-05-06 16:37 | 40.04037 | -75.92046 | 31014 ft | 391 kts | 242° |
| 2026-05-06 16:37 | 40.02537 | -75.94988 | 31404 ft | 389 kts | 243° |
| 2026-05-06 16:37 | 40.01042 | -75.97920 | 31826 ft | 386 kts | 243° |
| 2026-05-06 16:37 | 39.99555 | -76.00834 | 32237 ft | 384 kts | 243° |
| 2026-05-06 16:38 | 39.98079 | -76.03725 | 32624 ft | 383 kts | 243° |
| 2026-05-06 16:38 | 39.96605 | -76.06607 | 32999 ft | 381 kts | 244° |
| 2026-05-06 16:38 | 39.95142 | -76.09480 | 33350 ft | 380 kts | 244° |
| 2026-05-06 16:38 | 39.93693 | -76.12357 | 33691 ft | 379 kts | 244° |
| 2026-05-06 16:39 | 39.92259 | -76.15205 | 33893 ft | 380 kts | 244° |
| 2026-05-06 16:39 | 39.89346 | -76.20959 | 33867 ft | 379 kts | 244° |
| 2026-05-06 16:40 | 39.86458 | -76.26584 | 33863 ft | 374 kts | 244° |
| 2026-05-06 16:40 | 39.83573 | -76.32198 | 33878 ft | 372 kts | 244° |
| 2026-05-06 16:41 | 39.80703 | -76.37782 | 33878 ft | 371 kts | 244° |
| 2026-05-06 16:41 | 39.77827 | -76.43374 | 33872 ft | 372 kts | 244° |
| 2026-05-06 16:42 | 39.74941 | -76.48972 | 33878 ft | 374 kts | 244° |
| 2026-05-06 16:42 | 39.72044 | -76.54585 | 33874 ft | 374 kts | 243° |
| 2026-05-06 16:43 | 39.69134 | -76.60207 | 33837 ft | 376 kts | 243° |
| 2026-05-06 16:43 | 39.66217 | -76.65832 | 33870 ft | 375 kts | 243° |
| 2026-05-06 16:44 | 39.63294 | -76.71461 | 33879 ft | 376 kts | 243° |
| 2026-05-06 16:44 | 39.60367 | -76.77089 | 33875 ft | 376 kts | 243° |
| 2026-05-06 16:45 | 39.57456 | -76.82676 | 33881 ft | 377 kts | 243° |
| 2026-05-06 16:45 | 39.54520 | -76.88302 | 33893 ft | 376 kts | 243° |
| 2026-05-06 16:46 | 39.51590 | -76.93904 | 33878 ft | 374 kts | 243° |
| 2026-05-06 16:46 | 39.48271 | -76.99162 | 33860 ft | 384 kts | 233° |
| 2026-05-06 16:47 | 39.44106 | -77.03643 | 33877 ft | 390 kts | 230° |
| 2026-05-06 16:47 | 39.39883 | -77.08045 | 33883 ft | 389 kts | 230° |
| 2026-05-06 16:48 | 39.35695 | -77.12426 | 33907 ft | 390 kts | 230° |
| 2026-05-06 16:48 | 39.31482 | -77.16841 | 33883 ft | 391 kts | 230° |
| 2026-05-06 16:49 | 39.27267 | -77.21254 | 33900 ft | 390 kts | 230° |
| 2026-05-06 16:49 | 39.23059 | -77.25655 | 33911 ft | 389 kts | 230° |
| 2026-05-06 16:50 | 39.18852 | -77.30046 | 33908 ft | 388 kts | 230° |
| 2026-05-06 16:50 | 39.14673 | -77.34401 | 33902 ft | 386 kts | 230° |
| 2026-05-06 16:51 | 39.10508 | -77.38736 | 33847 ft | 385 kts | 230° |
| 2026-05-06 16:51 | 39.06346 | -77.43063 | 33880 ft | 384 kts | 230° |
| 2026-05-06 16:52 | 39.02190 | -77.47378 | 33892 ft | 385 kts | 230° |
| 2026-05-06 16:52 | 38.98016 | -77.51704 | 33891 ft | 386 kts | 230° |
| 2026-05-06 16:53 | 38.93858 | -77.56006 | 33890 ft | 387 kts | 230° |
| 2026-05-06 16:53 | 38.89656 | -77.60347 | 33867 ft | 388 kts | 230° |
| 2026-05-06 16:54 | 38.85460 | -77.64673 | 33893 ft | 389 kts | 230° |
| 2026-05-06 16:54 | 38.81237 | -77.69020 | 33894 ft | 389 kts | 230° |
| 2026-05-06 16:55 | 38.77013 | -77.73362 | 33891 ft | 389 kts | 230° |
| 2026-05-06 16:55 | 38.72797 | -77.77689 | 33884 ft | 386 kts | 230° |
| 2026-05-06 16:55 | 38.70725 | -77.79808 | 33496 ft | 379 kts | 230° |
| 2026-05-06 16:56 | 38.68664 | -77.81923 | 32590 ft | 382 kts | 229° |
| 2026-05-06 16:56 | 38.66594 | -77.84044 | 32251 ft | 377 kts | 229° |
| 2026-05-06 16:56 | 38.64601 | -77.86200 | 32145 ft | 373 kts | 234° |
| 2026-05-06 16:56 | 38.62848 | -77.88636 | 32036 ft | 373 kts | 240° |
| 2026-05-06 16:57 | 38.61283 | -77.91320 | 31965 ft | 379 kts | 241° |
| 2026-05-06 16:57 | 38.58115 | -77.96778 | 31917 ft | 383 kts | 241° |
| 2026-05-06 16:58 | 38.54955 | -78.02168 | 31902 ft | 375 kts | 241° |
| 2026-05-06 16:58 | 38.51823 | -78.07497 | 31903 ft | 375 kts | 241° |
| 2026-05-06 16:59 | 38.48680 | -78.12835 | 31890 ft | 376 kts | 241° |
| 2026-05-06 16:59 | 38.45523 | -78.18188 | 31894 ft | 378 kts | 241° |
| 2026-05-06 17:00 | 38.42367 | -78.23530 | 31888 ft | 380 kts | 241° |
| 2026-05-06 17:00 | 38.39177 | -78.28919 | 31882 ft | 381 kts | 241° |
| 2026-05-06 17:01 | 38.35949 | -78.34356 | 31883 ft | 382 kts | 240° |
| 2026-05-06 17:01 | 38.32759 | -78.39725 | 31885 ft | 383 kts | 240° |
| 2026-05-06 17:02 | 38.29537 | -78.45136 | 31884 ft | 383 kts | 241° |
| 2026-05-06 17:02 | 38.26314 | -78.50544 | 31894 ft | 383 kts | 241° |
| 2026-05-06 17:03 | 38.23091 | -78.55942 | 31897 ft | 383 kts | 241° |
| 2026-05-06 17:03 | 38.19865 | -78.61336 | 31904 ft | 383 kts | 241° |
| 2026-05-06 17:04 | 38.16632 | -78.66728 | 31908 ft | 383 kts | 241° |
| 2026-05-06 17:04 | 38.13404 | -78.72110 | 31899 ft | 382 kts | 238° |
| 2026-05-06 17:05 | 38.10183 | -78.77468 | 31891 ft | 380 kts | 238° |
| 2026-05-06 17:05 | 38.06976 | -78.82798 | 31897 ft | 380 kts | 238° |
| 2026-05-06 17:06 | 38.03758 | -78.88138 | 31908 ft | 384 kts | 238° |
| 2026-05-06 17:06 | 38.00479 | -78.93572 | 31899 ft | 390 kts | 238° |
| 2026-05-06 17:07 | 37.97202 | -78.98986 | 31889 ft | 390 kts | 238° |
| 2026-05-06 17:07 | 37.93896 | -79.04443 | 31906 ft | 390 kts | 238° |
| 2026-05-06 17:08 | 37.90595 | -79.09879 | 31944 ft | 389 kts | 237° |
| 2026-05-06 17:08 | 37.87028 | -79.15070 | 31983 ft | 391 kts | 233° |
| 2026-05-06 17:09 | 37.83351 | -79.20143 | 32013 ft | 389 kts | 233° |
| 2026-05-06 17:09 | 37.81542 | -79.22630 | 31747 ft | 380 kts | 233° |
| 2026-05-06 17:09 | 37.79764 | -79.25080 | 31112 ft | 378 kts | 233° |
| 2026-05-06 17:09 | 37.77990 | -79.27538 | 30503 ft | 376 kts | 233° |
| 2026-05-06 17:10 | 37.76240 | -79.29965 | 30408 ft | 377 kts | 233° |
| 2026-05-06 17:10 | 37.72658 | -79.34932 | 30211 ft | 393 kts | 233° |
| 2026-05-06 17:10 | 37.70800 | -79.37509 | 30071 ft | 398 kts | 232° |
| 2026-05-06 17:11 | 37.68927 | -79.40100 | 30063 ft | 401 kts | 232° |
| 2026-05-06 17:11 | 37.65126 | -79.45350 | 30046 ft | 407 kts | 232° |
| 2026-05-06 17:12 | 37.61311 | -79.50606 | 30010 ft | 405 kts | 232° |
| 2026-05-06 17:12 | 37.57517 | -79.55830 | 29973 ft | 403 kts | 232° |
| 2026-05-06 17:13 | 37.53736 | -79.61028 | 29948 ft | 402 kts | 232° |
| 2026-05-06 17:13 | 37.49954 | -79.66217 | 29927 ft | 402 kts | 231° |
| 2026-05-06 17:14 | 37.46188 | -79.71377 | 29952 ft | 404 kts | 231° |
| 2026-05-06 17:14 | 37.42371 | -79.76602 | 29972 ft | 407 kts | 231° |
| 2026-05-06 17:15 | 37.38523 | -79.81857 | 29992 ft | 409 kts | 231° |
| 2026-05-06 17:15 | 37.34657 | -79.87129 | 29982 ft | 409 kts | 231° |
| 2026-05-06 17:16 | 37.30808 | -79.92369 | 30003 ft | 408 kts | 231° |
| 2026-05-06 17:16 | 37.26961 | -79.97598 | 29980 ft | 408 kts | 231° |
| 2026-05-06 17:17 | 37.23095 | -80.02845 | 29944 ft | 410 kts | 231° |
| 2026-05-06 17:17 | 37.19212 | -80.08107 | 29969 ft | 412 kts | 231° |
| 2026-05-06 17:18 | 37.15300 | -80.13398 | 29976 ft | 414 kts | 231° |
| 2026-05-06 17:18 | 37.11383 | -80.18689 | 30004 ft | 414 kts | 230° |
| 2026-05-06 17:19 | 37.07470 | -80.23965 | 29990 ft | 413 kts | 230° |
| 2026-05-06 17:19 | 37.03565 | -80.29223 | 29978 ft | 412 kts | 230° |
| 2026-05-06 17:20 | 36.99647 | -80.34424 | 29986 ft | 414 kts | 229° |
| 2026-05-06 17:20 | 36.95623 | -80.39560 | 29976 ft | 415 kts | 229° |
| 2026-05-06 17:21 | 36.91576 | -80.44701 | 29974 ft | 415 kts | 229° |
| 2026-05-06 17:21 | 36.87533 | -80.49849 | 29961 ft | 415 kts | 229° |
| 2026-05-06 17:22 | 36.83483 | -80.55011 | 29971 ft | 415 kts | 230° |
| 2026-05-06 17:22 | 36.79445 | -80.60153 | 29965 ft | 415 kts | 230° |
| 2026-05-06 17:23 | 36.76085 | -80.64424 | 30007 ft | 415 kts | 230° |
| 2026-05-06 17:23 | 36.72042 | -80.69557 | 30022 ft | 415 kts | 230° |
| 2026-05-06 17:24 | 36.68001 | -80.74679 | 30020 ft | 414 kts | 230° |
| 2026-05-06 17:24 | 36.63952 | -80.79803 | 30014 ft | 415 kts | 230° |
| 2026-05-06 17:25 | 36.59888 | -80.84941 | 30010 ft | 420 kts | 230° |
| 2026-05-06 17:25 | 36.55757 | -80.90154 | 29982 ft | 426 kts | 230° |
| 2026-05-06 17:26 | 36.51592 | -80.95396 | 29979 ft | 426 kts | 230° |
| 2026-05-06 17:26 | 36.47424 | -81.00636 | 30007 ft | 426 kts | 230° |
| 2026-05-06 17:27 | 36.43255 | -81.05870 | 30022 ft | 426 kts | 230° |
| 2026-05-06 17:27 | 36.39119 | -81.11056 | 30034 ft | 426 kts | 230° |
| 2026-05-06 17:28 | 36.34940 | -81.16286 | 30051 ft | 427 kts | 230° |
| 2026-05-06 17:28 | 36.30754 | -81.21516 | 30069 ft | 427 kts | 230° |
| 2026-05-06 17:29 | 36.26568 | -81.26741 | 30061 ft | 428 kts | 230° |
| 2026-05-06 17:29 | 36.22383 | -81.31960 | 30041 ft | 424 kts | 230° |
| 2026-05-06 17:30 | 36.18250 | -81.37103 | 29992 ft | 418 kts | 231° |
| 2026-05-06 17:30 | 36.14137 | -81.42221 | 30018 ft | 420 kts | 231° |
| 2026-05-06 17:31 | 36.10025 | -81.47330 | 29985 ft | 422 kts | 231° |
| 2026-05-06 17:31 | 36.05873 | -81.52478 | 29988 ft | 423 kts | 230° |
| 2026-05-06 17:32 | 36.01708 | -81.57633 | 29988 ft | 423 kts | 231° |
| 2026-05-06 17:32 | 35.97549 | -81.62769 | 29983 ft | 423 kts | 230° |
| 2026-05-06 17:33 | 35.93380 | -81.67915 | 29987 ft | 424 kts | 230° |
| 2026-05-06 17:33 | 35.89190 | -81.73078 | 29991 ft | 427 kts | 230° |
| 2026-05-06 17:34 | 35.84978 | -81.78259 | 30048 ft | 428 kts | 230° |
| 2026-05-06 17:34 | 35.80752 | -81.83451 | 30033 ft | 430 kts | 230° |
| 2026-05-06 17:35 | 35.76500 | -81.88621 | 30027 ft | 430 kts | 229° |
| 2026-05-06 17:35 | 35.72203 | -81.93752 | 30009 ft | 430 kts | 229° |
| 2026-05-06 17:36 | 35.65763 | -82.01431 | 30014 ft | 430 kts | 229° |
| 2026-05-06 17:36 | 35.61500 | -82.06516 | 30028 ft | 429 kts | 229° |
| 2026-05-06 17:37 | 35.57218 | -82.11619 | 30027 ft | 429 kts | 229° |
| 2026-05-06 17:37 | 35.52932 | -82.16718 | 30028 ft | 429 kts | 229° |
| 2026-05-06 17:38 | 35.48645 | -82.21811 | 30015 ft | 428 kts | 229° |
| 2026-05-06 17:38 | 35.44347 | -82.26915 | 30019 ft | 431 kts | 229° |
| 2026-05-06 17:39 | 35.40066 | -82.32065 | 30010 ft | 432 kts | 230° |
| 2026-05-06 17:39 | 35.35853 | -82.37327 | 30006 ft | 432 kts | 230° |
| 2026-05-06 17:40 | 35.31637 | -82.42589 | 30011 ft | 433 kts | 230° |
| 2026-05-06 17:40 | 35.27410 | -82.47836 | 30010 ft | 432 kts | 230° |
| 2026-05-06 17:41 | 35.23179 | -82.53072 | 30020 ft | 433 kts | 230° |
| 2026-05-06 17:41 | 35.18959 | -82.58288 | 30036 ft | 435 kts | 230° |
| 2026-05-06 17:42 | 35.14674 | -82.63552 | 30018 ft | 438 kts | 229° |
| 2026-05-06 17:42 | 35.10294 | -82.68752 | 30015 ft | 439 kts | 229° |
| 2026-05-06 17:43 | 35.05897 | -82.73940 | 30023 ft | 439 kts | 229° |
| 2026-05-06 17:43 | 35.01510 | -82.79131 | 30028 ft | 439 kts | 229° |
| 2026-05-06 17:44 | 34.97120 | -82.84331 | 30018 ft | 440 kts | 229° |
| 2026-05-06 17:44 | 34.92718 | -82.89524 | 30034 ft | 440 kts | 229° |
| 2026-05-06 17:45 | 34.88279 | -82.94669 | 30033 ft | 440 kts | 229° |
| 2026-05-06 17:45 | 34.83846 | -82.99784 | 29882 ft | 437 kts | 229° |
| 2026-05-06 17:46 | 34.81684 | -83.02279 | 29608 ft | 432 kts | 229° |
| 2026-05-06 17:46 | 34.79515 | -83.04785 | 29339 ft | 428 kts | 229° |
| 2026-05-06 17:46 | 34.77361 | -83.07273 | 29044 ft | 426 kts | 229° |
| 2026-05-06 17:46 | 34.75215 | -83.09750 | 28776 ft | 424 kts | 229° |
| 2026-05-06 17:47 | 34.73074 | -83.12217 | 28518 ft | 423 kts | 229° |
| 2026-05-06 17:47 | 34.70939 | -83.14674 | 28266 ft | 421 kts | 229° |
| 2026-05-06 17:47 | 34.68816 | -83.17116 | 28021 ft | 419 kts | 230° |
| 2026-05-06 17:47 | 34.66705 | -83.19541 | 27390 ft | 415 kts | 230° |
| 2026-05-06 17:48 | 34.64623 | -83.21931 | 26775 ft | 409 kts | 230° |
| 2026-05-06 17:48 | 34.62571 | -83.24288 | 26181 ft | 404 kts | 230° |
| 2026-05-06 17:48 | 34.60543 | -83.26618 | 25586 ft | 399 kts | 230° |
| 2026-05-06 17:48 | 34.58533 | -83.28925 | 24993 ft | 395 kts | 230° |
| 2026-05-06 17:49 | 34.56545 | -83.31202 | 24411 ft | 391 kts | 230° |
| 2026-05-06 17:49 | 34.54577 | -83.33458 | 23814 ft | 387 kts | 230° |
| 2026-05-06 17:49 | 34.52633 | -83.35691 | 23225 ft | 383 kts | 230° |
| 2026-05-06 17:49 | 34.50710 | -83.37901 | 22613 ft | 378 kts | 230° |
| 2026-05-06 17:50 | 34.48807 | -83.40088 | 22005 ft | 374 kts | 230° |
| 2026-05-06 17:50 | 34.46930 | -83.42244 | 21452 ft | 370 kts | 230° |
| 2026-05-06 17:50 | 34.45071 | -83.44379 | 20863 ft | 366 kts | 230° |
| 2026-05-06 17:50 | 34.43231 | -83.46492 | 20312 ft | 363 kts | 230° |
| 2026-05-06 17:51 | 34.41409 | -83.48582 | 19771 ft | 359 kts | 230° |
| 2026-05-06 17:51 | 34.39598 | -83.50658 | 19231 ft | 357 kts | 230° |
| 2026-05-06 17:51 | 34.37804 | -83.52714 | 18700 ft | 354 kts | 230° |
| 2026-05-06 17:51 | 34.36019 | -83.54759 | 18160 ft | 352 kts | 230° |
| 2026-05-06 17:52 | 34.34268 | -83.56763 | 17570 ft | 350 kts | 230° |
| 2026-05-06 17:52 | 34.32502 | -83.58784 | 16977 ft | 348 kts | 229° |
| 2026-05-06 17:52 | 34.30748 | -83.60787 | 16394 ft | 345 kts | 229° |
| 2026-05-06 17:52 | 34.29018 | -83.62760 | 15898 ft | 340 kts | 229° |
| 2026-05-06 17:53 | 34.27272 | -83.64688 | 15371 ft | 338 kts | 227° |
| 2026-05-06 17:53 | 34.25507 | -83.66560 | 14849 ft | 337 kts | 226° |
| 2026-05-06 17:53 | 34.23749 | -83.68410 | 14343 ft | 334 kts | 226° |
| 2026-05-06 17:53 | 34.22007 | -83.70246 | 13868 ft | 331 kts | 226° |
| 2026-05-06 17:54 | 34.20278 | -83.72074 | 13311 ft | 329 kts | 226° |
| 2026-05-06 17:54 | 34.18560 | -83.73895 | 12752 ft | 328 kts | 226° |
| 2026-05-06 17:54 | 34.16885 | -83.75670 | 12625 ft | 313 kts | 226° |
| 2026-05-06 17:54 | 34.15279 | -83.77374 | 12460 ft | 302 kts | 226° |
| 2026-05-06 17:55 | 34.13735 | -83.79013 | 12328 ft | 290 kts | 226° |
| 2026-05-06 17:55 | 34.12248 | -83.80590 | 12216 ft | 279 kts | 226° |
| 2026-05-06 17:55 | 34.10796 | -83.82130 | 12106 ft | 277 kts | 226° |
| 2026-05-06 17:55 | 34.09363 | -83.83652 | 12012 ft | 273 kts | 227° |
| 2026-05-06 17:56 | 34.07989 | -83.85122 | 11978 ft | 261 kts | 227° |
| 2026-05-06 17:56 | 34.06544 | -83.86434 | 11833 ft | 264 kts | 216° |
| 2026-05-06 17:56 | 34.04902 | -83.87467 | 11391 ft | 269 kts | 214° |
| 2026-05-06 17:56 | 34.03219 | -83.88525 | 10902 ft | 274 kts | 214° |
| 2026-05-06 17:57 | 34.01626 | -83.89750 | 10542 ft | 270 kts | 222° |
| 2026-05-06 17:57 | 34.00155 | -83.91132 | 10242 ft | 267 kts | 224° |
| 2026-05-06 17:57 | 33.98726 | -83.92517 | 10037 ft | 260 kts | 224° |
| 2026-05-06 17:57 | 33.97316 | -83.93890 | 9639 ft | 262 kts | 224° |
| 2026-05-06 17:58 | 33.95910 | -83.95273 | 9276 ft | 261 kts | 224° |
| 2026-05-06 17:58 | 33.94514 | -83.96655 | 8945 ft | 259 kts | 224° |
| 2026-05-06 17:58 | 33.93127 | -83.98039 | 8605 ft | 258 kts | 224° |
| 2026-05-06 17:58 | 33.91745 | -83.99422 | 8260 ft | 259 kts | 224° |
| 2026-05-06 17:59 | 33.90367 | -84.00803 | 7865 ft | 256 kts | 224° |
| 2026-05-06 17:59 | 33.89003 | -84.02173 | 7402 ft | 255 kts | 224° |
| 2026-05-06 17:59 | 33.87642 | -84.03542 | 6966 ft | 254 kts | 224° |
| 2026-05-06 17:59 | 33.86289 | -84.04904 | 6535 ft | 253 kts | 224° |
| 2026-05-06 18:00 | 33.84943 | -84.06270 | 6152 ft | 253 kts | 224° |
| 2026-05-06 18:00 | 33.83594 | -84.07655 | 6056 ft | 255 kts | 224° |
| 2026-05-06 18:00 | 33.82261 | -84.09021 | 5983 ft | 245 kts | 224° |
| 2026-05-06 18:00 | 33.81014 | -84.10297 | 5951 ft | 226 kts | 224° |
| 2026-05-06 18:01 | 33.79853 | -84.11458 | 5962 ft | 209 kts | 224° |
| 2026-05-06 18:01 | 33.78760 | -84.12540 | 5907 ft | 206 kts | 224° |
| 2026-05-06 18:01 | 33.77658 | -84.13633 | 5720 ft | 203 kts | 224° |
| 2026-05-06 18:01 | 33.76565 | -84.14731 | 5277 ft | 206 kts | 224° |
| 2026-05-06 18:02 | 33.75455 | -84.15860 | 4796 ft | 211 kts | 224° |
| 2026-05-06 18:02 | 33.74348 | -84.16997 | 4520 ft | 206 kts | 224° |
| 2026-05-06 18:02 | 33.73278 | -84.18124 | 4173 ft | 204 kts | 224° |
| 2026-05-06 18:02 | 33.72214 | -84.19266 | 3789 ft | 206 kts | 224° |
| 2026-05-06 18:03 | 33.71166 | -84.20413 | 3406 ft | 206 kts | 224° |
| 2026-05-06 18:03 | 33.70125 | -84.21580 | 3070 ft | 204 kts | 224° |
| 2026-05-06 18:03 | 33.69101 | -84.22763 | 3039 ft | 208 kts | 224° |
| 2026-05-06 18:03 | 33.68065 | -84.23964 | 2994 ft | 204 kts | 224° |
| 2026-05-06 18:04 | 33.67065 | -84.25110 | 2973 ft | 191 kts | 224° |
| 2026-05-06 18:04 | 33.66120 | -84.26191 | 3008 ft | 184 kts | 225° |
| 2026-05-06 18:04 | 33.65351 | -84.27383 | 3007 ft | 178 kts | 238° |
| 2026-05-06 18:04 | 33.65035 | -84.28783 | 2957 ft | 181 kts | 265° |
| 2026-05-06 18:05 | 33.64989 | -84.30296 | 2729 ft | 179 kts | 265° |
| 2026-05-06 18:05 | 33.64962 | -84.31748 | 2517 ft | 168 kts | 264° |
| 2026-05-06 18:05 | 33.64954 | -84.33124 | 2355 ft | 164 kts | 265° |
| 2026-05-06 18:05 | 33.65004 | -84.34501 | 2149 ft | 162 kts | 268° |
| 2026-05-06 18:06 | 33.64999 | -84.35783 | 1834 ft | 150 kts | 263° |
| 2026-05-06 18:06 | 33.64963 | -84.36980 | 1642 ft | 139 kts | 264° |
| 2026-05-06 18:06 | 33.64964 | -84.38163 | 1478 ft | 145 kts | 259° |
| 2026-05-06 18:06 | 33.64952 | -84.39397 | 1273 ft | 149 kts | 261° |
| 2026-05-06 18:07 | 33.64953 | -84.40635 | 1069 ft | 147 kts | 266° |
| 2026-05-06 18:07 | 33.64955 | -84.41799 | 1005 ft | 120 kts | 270° |
| 2026-05-06 18:07 | 33.64955 | -84.42547 | 1006 ft | 59 kts | 270° |
| 2026-05-06 18:07 | 33.64954 | -84.42933 | 1005 ft | 44 kts | 270° |
| 2026-05-06 18:08 | 33.64904 | -84.43241 | 1006 ft | 33 kts | 242° |
| 2026-05-06 18:08 | 33.64845 | -84.43410 | 1005 ft | 21 kts | 264° |
| 2026-05-06 18:08 | 33.64801 | -84.43543 | 1006 ft | 13 kts | 211° |
| 2026-05-06 18:08 | 33.64785 | -84.43554 | 1006 ft | 0 kts | 209° |
| 2026-05-06 18:09 | 33.64784 | -84.43555 | 1006 ft | 0 kts | 209° |
| 2026-05-06 18:09 | 33.64748 | -84.43578 | 1006 ft | 10 kts | 208° |
| 2026-05-06 18:10 | 33.64701 | -84.43610 | 1005 ft | 13 kts | 211° |
| 2026-05-06 18:10 | 33.64595 | -84.43686 | 1005 ft | 13 kts | 209° |
| 2026-05-06 18:10 | 33.64540 | -84.43715 | 1005 ft | 13 kts | 192° |
| 2026-05-06 18:10 | 33.64463 | -84.43700 | 1005 ft | 10 kts | 119° |
| 2026-05-06 18:11 | 33.64459 | -84.43586 | 1005 ft | 11 kts | 90° |
| 2026-05-06 18:11 | 33.64459 | -84.43518 | 1005 ft | 13 kts | 95° |
| 2026-05-06 18:11 | 33.64387 | -84.43461 | 1005 ft | 14 kts | 182° |
| 2026-05-06 18:11 | 33.64291 | -84.43458 | 1005 ft | 13 kts | 180° |
| 2026-05-06 18:12 | 33.64211 | -84.43460 | 1005 ft | 9 kts | 182° |
| 2026-05-06 18:12 | 33.64180 | -84.43480 | 1005 ft | 1 kts | 245° |
| 2026-05-06 18:12 | 33.64178 | -84.43488 | 1005 ft | 0 kts | 256° |